createdAt,value
2019-04-16T00:00:20.535Z,0.00
2019-04-16T00:01:20.609Z,0.00
2019-04-16T00:02:20.507Z,0.00
2019-04-16T00:03:23.215Z,0.00
2019-04-16T00:04:22.311Z,0.00
2019-04-16T00:05:20.480Z,0.00
2019-04-16T00:06:20.498Z,0.00
2019-04-16T00:07:20.443Z,0.00
2019-04-16T00:08:27.587Z,0.00
2019-04-16T00:09:21.440Z,0.00
2019-04-16T00:10:20.435Z,0.00
2019-04-16T00:11:20.569Z,0.00
2019-04-16T00:12:20.437Z,0.00
2019-04-16T00:13:20.385Z,0.00
2019-04-16T00:14:20.372Z,0.00
2019-04-16T00:15:20.409Z,0.00
2019-04-16T00:16:20.413Z,0.00
2019-04-16T00:17:20.366Z,0.00
2019-04-16T00:18:20.339Z,0.00
2019-04-16T00:19:20.321Z,0.00
2019-04-16T00:20:20.310Z,0.00
2019-04-16T00:21:20.382Z,0.00
2019-04-16T00:22:20.290Z,0.00
2019-04-16T00:23:20.313Z,0.00
2019-04-16T00:24:20.262Z,0.00
2019-04-16T00:25:20.250Z,0.00
2019-04-16T00:26:20.265Z,0.00
2019-04-16T00:27:20.246Z,0.00
2019-04-16T00:28:20.241Z,0.00
2019-04-16T00:29:20.209Z,0.00
2019-04-16T00:30:20.187Z,0.00
2019-04-16T00:31:20.259Z,0.00
2019-04-16T00:32:20.199Z,0.00
2019-04-16T00:33:20.166Z,0.00
2019-04-16T00:34:20.148Z,0.00
2019-04-16T00:35:20.146Z,0.00
2019-04-16T00:36:20.125Z,0.00
2019-04-16T00:37:21.292Z,0.00
2019-04-16T00:38:22.554Z,0.00
2019-04-16T00:39:24.563Z,0.00
2019-04-16T00:40:21.077Z,0.00
2019-04-16T00:41:20.071Z,0.00
2019-04-16T00:42:20.084Z,0.00
2019-04-16T00:43:20.107Z,0.00
2019-04-16T00:44:20.044Z,0.00
2019-04-16T00:45:20.051Z,0.00
2019-04-16T00:46:20.013Z,0.00
2019-04-16T00:47:20.082Z,0.00
2019-04-16T00:48:19.999Z,0.00
2019-04-16T00:49:19.982Z,0.00
2019-04-16T00:50:20.025Z,0.00
2019-04-16T00:51:19.955Z,0.00
2019-04-16T00:52:20.632Z,0.00
2019-04-16T00:53:19.965Z,0.00
2019-04-16T00:54:19.933Z,0.00
2019-04-16T00:55:19.931Z,0.00
2019-04-16T00:56:19.921Z,0.00
2019-04-16T00:57:19.896Z,0.00
2019-04-16T00:58:20.390Z,0.00
2019-04-16T00:59:21.301Z,0.00
2019-04-16T01:00:19.896Z,0.00
2019-04-16T01:01:19.901Z,0.00
2019-04-16T01:02:19.865Z,0.00
2019-04-16T01:03:19.920Z,0.00
2019-04-16T01:04:19.811Z,0.00
2019-04-16T01:05:19.807Z,0.00
2019-04-16T01:06:19.846Z,0.00
2019-04-16T01:07:19.813Z,0.00
2019-04-16T01:08:20.239Z,0.00
2019-04-16T01:09:19.762Z,0.00
2019-04-16T01:10:19.763Z,0.00
2019-04-16T01:11:19.763Z,0.00
2019-04-16T01:12:19.750Z,0.00
2019-04-16T01:13:21.670Z,0.00
2019-04-16T01:14:19.699Z,0.00
2019-04-16T01:15:19.702Z,0.00
2019-04-16T01:16:19.766Z,0.00
2019-04-16T01:17:19.691Z,0.00
2019-04-16T01:18:19.705Z,0.00
2019-04-16T01:19:19.664Z,0.00
2019-04-16T01:20:19.678Z,0.00
2019-04-16T01:21:19.642Z,0.00
2019-04-16T01:22:19.617Z,0.00
2019-04-16T01:23:19.637Z,0.00
2019-04-16T01:24:20.211Z,0.00
2019-04-16T01:25:20.284Z,0.00
2019-04-16T01:26:19.584Z,0.00
2019-04-16T01:27:19.561Z,0.00
2019-04-16T01:28:19.620Z,0.00
2019-04-16T01:29:19.540Z,0.00
2019-04-16T01:30:19.536Z,0.00
2019-04-16T01:31:19.514Z,0.00
2019-04-16T01:32:19.533Z,0.00
2019-04-16T01:33:19.492Z,0.00
2019-04-16T01:34:19.505Z,0.00
2019-04-16T01:35:19.808Z,0.00
2019-04-16T01:36:20.290Z,0.00
2019-04-16T01:37:19.456Z,0.00
2019-04-16T01:38:19.473Z,0.00
2019-04-16T01:39:19.467Z,0.00
2019-04-16T01:40:19.441Z,0.00
2019-04-16T01:41:21.919Z,0.00
2019-04-16T01:42:23.121Z,0.00
2019-04-16T01:43:19.387Z,0.00
2019-04-16T01:44:19.412Z,0.00
2019-04-16T01:45:19.376Z,0.00
2019-04-16T01:46:19.417Z,0.00
2019-04-16T01:47:19.347Z,0.00
2019-04-16T01:48:19.333Z,0.00
2019-04-16T01:49:19.663Z,0.00
2019-04-16T01:50:19.388Z,0.00
2019-04-16T01:51:19.287Z,0.00
2019-04-16T01:52:19.679Z,0.00
2019-04-16T01:53:21.107Z,0.00
2019-04-16T01:54:22.553Z,0.00
2019-04-16T01:55:19.327Z,0.00
2019-04-16T01:56:19.244Z,0.00
2019-04-16T01:57:19.223Z,0.00
2019-04-16T01:58:19.242Z,0.00
2019-04-16T01:59:19.237Z,0.00
2019-04-16T02:00:20.141Z,0.00
2019-04-16T02:01:19.194Z,0.00
2019-04-16T02:02:19.173Z,0.00
2019-04-16T02:03:19.172Z,0.00
2019-04-16T02:04:19.838Z,0.00
2019-04-16T02:05:20.394Z,0.00
2019-04-16T02:06:19.129Z,0.00
2019-04-16T02:07:19.123Z,0.00
2019-04-16T02:08:19.111Z,0.00
2019-04-16T02:09:22.840Z,0.00
2019-04-16T02:10:19.163Z,0.00
2019-04-16T02:11:19.074Z,0.00
2019-04-16T02:12:19.102Z,0.00
2019-04-16T02:13:19.089Z,0.00
2019-04-16T02:14:22.138Z,0.00
2019-04-16T02:15:21.665Z,0.00
2019-04-16T02:16:19.209Z,0.00
2019-04-16T02:17:19.036Z,0.00
2019-04-16T02:18:19.030Z,0.00
2019-04-16T02:19:18.984Z,0.00
2019-04-16T02:20:18.970Z,0.00
2019-04-16T02:21:19.858Z,0.00
2019-04-16T02:22:18.992Z,0.00
2019-04-16T02:23:18.954Z,0.00
2019-04-16T02:24:19.455Z,0.00
2019-04-16T02:25:20.224Z,0.00
2019-04-16T02:26:20.496Z,0.00
2019-04-16T02:27:18.902Z,0.00
2019-04-16T02:28:21.424Z,0.00
2019-04-16T02:29:18.875Z,0.00
2019-04-16T02:30:18.871Z,0.00
2019-04-16T02:31:19.784Z,0.00
2019-04-16T02:32:18.843Z,0.00
2019-04-16T02:33:18.837Z,0.00
2019-04-16T02:34:18.830Z,0.00
2019-04-16T02:35:18.814Z,0.00
2019-04-16T02:36:18.860Z,0.00
2019-04-16T02:37:18.825Z,0.00
2019-04-16T02:38:18.798Z,0.00
2019-04-16T02:39:25.439Z,0.00
2019-04-16T02:40:19.761Z,0.00
2019-04-16T02:41:22.390Z,0.00
2019-04-16T02:42:18.900Z,0.00
2019-04-16T02:43:18.726Z,0.00
2019-04-16T02:44:18.754Z,0.00
2019-04-16T02:45:23.065Z,0.00
2019-04-16T02:46:18.683Z,0.00
2019-04-16T02:47:18.708Z,0.00
2019-04-16T02:48:18.663Z,0.00
2019-04-16T02:49:23.223Z,0.00
2019-04-16T02:50:19.662Z,0.00
2019-04-16T02:51:18.633Z,0.00
2019-04-16T02:52:18.664Z,0.00
2019-04-16T02:53:24.184Z,0.00
2019-04-16T02:54:19.601Z,0.00
2019-04-16T02:55:18.599Z,0.00
2019-04-16T02:56:19.252Z,0.00
2019-04-16T02:57:18.683Z,0.00
2019-04-16T02:58:19.577Z,0.00
2019-04-16T02:59:18.617Z,0.00
2019-04-16T03:00:18.616Z,0.00
2019-04-16T03:01:20.889Z,0.00
2019-04-16T03:02:22.783Z,0.00
2019-04-16T03:03:19.532Z,0.00
2019-04-16T03:04:18.492Z,0.00
2019-04-16T03:05:18.470Z,0.00
2019-04-16T03:06:18.512Z,0.00
2019-04-16T03:07:18.448Z,0.00
2019-04-16T03:08:18.656Z,0.00
2019-04-16T03:09:18.445Z,0.00
2019-04-16T03:10:18.439Z,0.00
2019-04-16T03:11:18.420Z,0.00
2019-04-16T03:12:21.025Z,0.00
2019-04-16T03:13:23.054Z,0.00
2019-04-16T03:14:19.378Z,0.00
2019-04-16T03:15:18.370Z,0.00
2019-04-16T03:16:18.362Z,0.00
2019-04-16T03:17:18.372Z,0.00
2019-04-16T03:18:18.361Z,0.00
2019-04-16T03:19:20.032Z,0.00
2019-04-16T03:20:20.868Z,0.00
2019-04-16T03:21:19.297Z,0.00
2019-04-16T03:22:18.297Z,0.00
2019-04-16T03:23:18.306Z,0.00
2019-04-16T03:24:18.268Z,0.00
2019-04-16T03:25:18.255Z,0.00
2019-04-16T03:26:18.360Z,0.00
2019-04-16T03:27:21.903Z,0.00
2019-04-16T03:28:18.253Z,0.00
2019-04-16T03:29:18.213Z,0.00
2019-04-16T03:30:18.201Z,0.00
2019-04-16T03:31:22.373Z,0.00
2019-04-16T03:32:19.185Z,0.00
2019-04-16T03:33:18.247Z,0.00
2019-04-16T03:34:19.074Z,0.00
2019-04-16T03:35:18.160Z,0.00
2019-04-16T03:36:18.137Z,0.00
2019-04-16T03:37:18.116Z,0.00
2019-04-16T03:38:18.149Z,0.00
2019-04-16T03:39:18.101Z,0.00
2019-04-16T03:40:18.910Z,0.00
2019-04-16T03:41:18.090Z,0.00
2019-04-16T03:42:18.067Z,0.00
2019-04-16T03:43:18.092Z,0.00
2019-04-16T03:44:18.050Z,0.00
2019-04-16T03:45:18.037Z,0.00
2019-04-16T03:46:18.078Z,0.00
2019-04-16T03:47:19.145Z,0.00
2019-04-16T03:48:20.600Z,0.00
2019-04-16T03:49:18.984Z,0.00
2019-04-16T03:50:17.986Z,0.00
2019-04-16T03:51:17.971Z,0.00
2019-04-16T03:52:18.016Z,0.00
2019-04-16T03:53:21.248Z,0.00
2019-04-16T03:54:18.842Z,0.00
2019-04-16T03:55:17.923Z,0.00
2019-04-16T03:56:17.915Z,0.00
2019-04-16T03:57:17.910Z,4.00
2019-04-16T03:58:17.923Z,4.00
2019-04-16T03:59:17.882Z,0.00
2019-04-16T04:00:17.906Z,4.00
2019-04-16T04:01:17.856Z,4.00
2019-04-16T04:02:21.753Z,4.00
2019-04-16T04:03:19.675Z,4.00
2019-04-16T04:04:17.827Z,4.00
2019-04-16T04:05:17.816Z,4.00
2019-04-16T04:06:17.808Z,4.00
2019-04-16T04:07:18.012Z,8.00
2019-04-16T04:08:18.711Z,8.00
2019-04-16T04:09:18.919Z,12.00
2019-04-16T04:10:30.010Z,12.00
2019-04-16T04:11:18.935Z,16.00
2019-04-16T04:12:17.729Z,20.00
2019-04-16T04:13:18.897Z,20.00
2019-04-16T04:14:22.126Z,24.00
2019-04-16T04:15:18.731Z,32.00
2019-04-16T04:16:17.688Z,36.00
2019-04-16T04:17:17.692Z,40.00
2019-04-16T04:18:17.662Z,48.00
2019-04-16T04:19:19.716Z,56.00
2019-04-16T04:20:19.126Z,68.00
2019-04-16T04:21:21.165Z,76.00
2019-04-16T04:22:17.667Z,92.00
2019-04-16T04:23:17.621Z,104.00
2019-04-16T04:24:17.629Z,116.00
2019-04-16T04:25:17.625Z,132.00
2019-04-16T04:26:17.582Z,152.00
2019-04-16T04:27:19.328Z,172.00
2019-04-16T04:28:19.732Z,192.00
2019-04-16T04:29:17.583Z,216.00
2019-04-16T04:30:17.568Z,236.00
2019-04-16T04:31:17.551Z,264.00
2019-04-16T04:32:17.517Z,292.00
2019-04-16T04:33:17.508Z,324.00
2019-04-16T04:34:17.834Z,356.00
2019-04-16T04:35:21.039Z,392.00
2019-04-16T04:36:19.345Z,424.00
2019-04-16T04:37:17.493Z,468.00
2019-04-16T04:38:17.444Z,508.00
2019-04-16T04:39:17.625Z,548.00
2019-04-16T04:40:17.695Z,596.00
2019-04-16T04:41:19.969Z,644.00
2019-04-16T04:42:19.151Z,696.00
2019-04-16T04:43:17.407Z,748.00
2019-04-16T04:44:17.444Z,804.00
2019-04-16T04:45:17.393Z,860.00
2019-04-16T04:46:17.364Z,924.00
2019-04-16T04:47:19.298Z,984.00
2019-04-16T04:48:17.347Z,1048.00
2019-04-16T04:49:17.601Z,1112.00
2019-04-16T04:50:17.384Z,1184.00
2019-04-16T04:51:17.301Z,1256.00
2019-04-16T04:52:17.287Z,1328.00
2019-04-16T04:53:19.437Z,1404.00
2019-04-16T04:54:21.745Z,1480.00
2019-04-16T04:55:25.655Z,1556.00
2019-04-16T04:56:19.272Z,1636.00
2019-04-16T04:57:17.276Z,1724.00
2019-04-16T04:58:17.228Z,1804.00
2019-04-16T04:59:17.258Z,1888.00
2019-04-16T05:00:18.187Z,1976.00
2019-04-16T05:01:17.196Z,2068.00
2019-04-16T05:02:17.186Z,2160.00
2019-04-16T05:03:17.227Z,2248.00
2019-04-16T05:04:20.402Z,2340.00
2019-04-16T05:05:17.257Z,2432.00
2019-04-16T05:06:17.158Z,2540.00
2019-04-16T05:07:17.172Z,2660.00
2019-04-16T05:08:17.119Z,2776.00
2019-04-16T05:09:17.130Z,2888.00
2019-04-16T05:10:17.140Z,3012.00
2019-04-16T05:11:17.208Z,3128.00
2019-04-16T05:12:18.083Z,3236.00
2019-04-16T05:13:17.065Z,3352.00
2019-04-16T05:14:17.053Z,3456.00
2019-04-16T05:15:17.046Z,3568.00
2019-04-16T05:16:17.057Z,3688.00
2019-04-16T05:17:17.120Z,3808.00
2019-04-16T05:18:17.024Z,3932.00
2019-04-16T05:19:16.992Z,4060.00
2019-04-16T05:20:16.992Z,4188.00
2019-04-16T05:21:19.345Z,4316.00
2019-04-16T05:22:20.583Z,4460.00
2019-04-16T05:23:16.951Z,4584.00
2019-04-16T05:24:16.992Z,4712.00
2019-04-16T05:25:16.927Z,4844.00
2019-04-16T05:26:17.683Z,4972.00
2019-04-16T05:27:16.927Z,5120.00
2019-04-16T05:28:16.917Z,5308.00
2019-04-16T05:29:18.587Z,5428.00
2019-04-16T05:30:19.845Z,5624.00
2019-04-16T05:31:16.990Z,5804.00
2019-04-16T05:32:16.850Z,5980.00
2019-04-16T05:33:16.898Z,6108.00
2019-04-16T05:34:18.161Z,6248.00
2019-04-16T05:35:16.855Z,6344.00
2019-04-16T05:36:16.853Z,6472.00
2019-04-16T05:37:20.806Z,6616.00
2019-04-16T05:38:16.782Z,6776.00
2019-04-16T05:39:16.780Z,6928.00
2019-04-16T05:40:16.762Z,7092.00
2019-04-16T05:41:20.315Z,7296.00
2019-04-16T05:42:26.077Z,7500.00
2019-04-16T05:43:16.728Z,7596.00
2019-04-16T05:44:16.738Z,7784.00
2019-04-16T05:45:16.706Z,7996.00
2019-04-16T05:46:16.699Z,8236.00
2019-04-16T05:47:18.234Z,8508.00
2019-04-16T05:48:18.560Z,8724.00
2019-04-16T05:49:16.685Z,8812.00
2019-04-16T05:50:16.720Z,8892.00
2019-04-16T05:51:16.689Z,9048.00
2019-04-16T05:52:16.653Z,9356.00
2019-04-16T05:53:16.689Z,9708.00
2019-04-16T05:54:16.629Z,9900.00
2019-04-16T05:55:18.027Z,10060.00
2019-04-16T05:56:16.610Z,10252.00
2019-04-16T05:57:16.594Z,10484.00
2019-04-16T05:58:19.256Z,10628.00
2019-04-16T05:59:16.560Z,10760.00
2019-04-16T06:00:16.545Z,11184.00
2019-04-16T06:01:16.552Z,11608.00
2019-04-16T06:02:18.767Z,11752.00
2019-04-16T06:03:21.845Z,11832.00
2019-04-16T06:04:16.647Z,12076.00
2019-04-16T06:05:16.506Z,12428.00
2019-04-16T06:06:16.466Z,12680.00
2019-04-16T06:07:16.461Z,12868.00
2019-04-16T06:08:16.478Z,13036.00
2019-04-16T06:09:16.443Z,13396.00
2019-04-16T06:10:17.819Z,13732.00
2019-04-16T06:11:28.662Z,13968.00
2019-04-16T06:12:17.405Z,13888.00
2019-04-16T06:13:16.423Z,14096.00
2019-04-16T06:14:17.573Z,14912.00
2019-04-16T06:15:21.336Z,15584.00
2019-04-16T06:16:17.410Z,15648.00
2019-04-16T06:17:16.349Z,15456.00
2019-04-16T06:18:18.686Z,15456.00
2019-04-16T06:19:16.383Z,15840.00
2019-04-16T06:20:19.909Z,16320.00
2019-04-16T06:21:16.299Z,16800.00
2019-04-16T06:22:16.300Z,17248.00
2019-04-16T06:23:16.317Z,17312.00
2019-04-16T06:24:17.202Z,17120.00
2019-04-16T06:25:16.294Z,17152.00
2019-04-16T06:26:17.154Z,17472.00
2019-04-16T06:27:16.234Z,17728.00
2019-04-16T06:28:16.225Z,18272.00
2019-04-16T06:29:16.248Z,18912.00
2019-04-16T06:30:16.225Z,19264.00
2019-04-16T06:31:16.192Z,19296.00
2019-04-16T06:32:16.178Z,19552.00
2019-04-16T06:33:16.200Z,19808.00
2019-04-16T06:34:16.212Z,20000.00
2019-04-16T06:35:16.149Z,20448.00
2019-04-16T06:36:16.241Z,21152.00
2019-04-16T06:37:20.274Z,21632.00
2019-04-16T06:38:16.160Z,21600.00
2019-04-16T06:39:16.153Z,21952.00
2019-04-16T06:40:16.139Z,22624.00
2019-04-16T06:41:16.088Z,23456.00
2019-04-16T06:42:21.493Z,24032.00
2019-04-16T06:43:17.073Z,24160.00
2019-04-16T06:44:16.057Z,24288.00
2019-04-16T06:45:19.788Z,25024.00
2019-04-16T06:46:16.049Z,25504.00
2019-04-16T06:47:16.026Z,25376.00
2019-04-16T06:48:16.036Z,25632.00
2019-04-16T06:49:17.789Z,25568.00
2019-04-16T06:50:29.583Z,25824.00
2019-04-16T06:51:17.002Z,26304.00
2019-04-16T06:52:17.368Z,27456.00
2019-04-16T06:53:15.952Z,28128.00
2019-04-16T06:54:15.942Z,28448.00
2019-04-16T06:55:23.785Z,27904.00
2019-04-16T06:56:15.923Z,28160.00
2019-04-16T06:57:15.928Z,29184.00
2019-04-16T06:58:17.663Z,29952.00
2019-04-16T06:59:17.477Z,30112.00
2019-04-16T07:00:15.992Z,29664.00
2019-04-16T07:01:15.905Z,29696.00
2019-04-16T07:04:06.753Z,31200.00
2019-04-16T07:05:02.939Z,32000.00
2019-04-16T07:06:03.911Z,32448.00
2019-04-16T07:07:07.819Z,32704.00
2019-04-16T07:08:03.755Z,32640.00
2019-04-16T07:09:02.764Z,33280.00
2019-04-16T07:10:02.737Z,33664.00
2019-04-16T07:11:02.747Z,33376.00
2019-04-16T07:12:02.733Z,34912.00
2019-04-16T07:13:02.713Z,35488.00
2019-04-16T07:14:02.677Z,34688.00
2019-04-16T07:15:02.706Z,34464.00
2019-04-16T07:16:02.745Z,35232.00
2019-04-16T07:17:02.652Z,36992.00
2019-04-16T07:18:05.397Z,37312.00
2019-04-16T07:19:02.646Z,36448.00
2019-04-16T07:20:04.689Z,36736.00
2019-04-16T07:21:06.712Z,36864.00
2019-04-16T07:22:02.593Z,37600.00
2019-04-16T07:23:02.604Z,38336.00
2019-04-16T07:24:02.634Z,39232.00
2019-04-16T07:25:04.416Z,39616.00
2019-04-16T07:26:03.846Z,38688.00
2019-04-16T07:27:02.687Z,38976.00
2019-04-16T07:28:02.522Z,40256.00
2019-04-16T07:29:02.604Z,41472.00
2019-04-16T07:30:06.745Z,42208.00
2019-04-16T07:31:03.618Z,42624.00
2019-04-16T07:32:02.564Z,42592.00
2019-04-16T07:33:02.478Z,41312.00
2019-04-16T07:34:02.490Z,41376.00
2019-04-16T07:35:02.479Z,42784.00
2019-04-16T07:36:02.446Z,43360.00
2019-04-16T07:37:02.453Z,42944.00
2019-04-16T07:38:05.127Z,43872.00
2019-04-16T07:39:05.360Z,44352.00
2019-04-16T07:40:02.447Z,44224.00
2019-04-16T07:41:02.438Z,45952.00
2019-04-16T07:42:10.768Z,47904.00
2019-04-16T07:43:03.502Z,48832.00
2019-04-16T07:44:08.118Z,49568.00
2019-04-16T07:45:03.346Z,49568.00
2019-04-16T07:46:02.324Z,46784.00
2019-04-16T07:47:02.326Z,45920.00
2019-04-16T07:48:05.895Z,47904.00
2019-04-16T07:49:02.303Z,48864.00
2019-04-16T07:50:02.555Z,50016.00
2019-04-16T07:51:04.897Z,49952.00
2019-04-16T07:52:07.002Z,49344.00
2019-04-16T07:53:05.759Z,50784.00
2019-04-16T07:54:03.227Z,51200.00
2019-04-16T07:55:02.242Z,50848.00
2019-04-16T07:56:02.219Z,52192.00
2019-04-16T07:57:02.221Z,53440.00
2019-04-16T07:58:02.209Z,53088.00
2019-04-16T07:59:02.389Z,52416.00
2019-04-16T08:00:02.168Z,53856.00
2019-04-16T08:01:02.232Z,55680.00
2019-04-16T08:02:02.466Z,56032.00
2019-04-16T08:03:02.136Z,55616.00
2019-04-16T08:04:03.165Z,55328.00
2019-04-16T08:05:07.516Z,56448.00
2019-04-16T08:06:03.116Z,56544.00
2019-04-16T08:07:02.108Z,56576.00
2019-04-16T08:08:02.111Z,57312.00
2019-04-16T08:09:02.131Z,58048.00
2019-04-16T08:10:03.214Z,56960.00
2019-04-16T08:11:02.064Z,56000.00
2019-04-16T08:12:02.068Z,56416.00
2019-04-16T08:13:02.036Z,57312.00
2019-04-16T08:14:02.061Z,57728.00
2019-04-16T08:15:13.790Z,58656.00
2019-04-16T08:16:03.109Z,59872.00
2019-04-16T08:17:01.991Z,61856.00
2019-04-16T08:18:01.982Z,61440.00
2019-04-16T08:19:01.994Z,59648.00
2019-04-16T08:20:01.975Z,60160.00
2019-04-16T08:21:09.465Z,62080.00
2019-04-16T08:22:03.034Z,63392.00
2019-04-16T08:23:02.043Z,61440.00
2019-04-16T08:24:02.121Z,61888.00
2019-04-16T08:25:03.543Z,62432.00
2019-04-16T08:26:04.291Z,63936.00
2019-04-16T08:27:01.885Z,62688.00
2019-04-16T08:28:01.880Z,60000.00
2019-04-16T08:29:01.949Z,60608.00
2019-04-16T08:30:03.435Z,63008.00
2019-04-16T08:31:01.915Z,64608.00
2019-04-16T08:32:01.840Z,63648.00
2019-04-16T08:33:01.824Z,59232.00
2019-04-16T08:34:01.850Z,60544.00
2019-04-16T08:35:01.962Z,62336.00
2019-04-16T08:36:01.802Z,63072.00
2019-04-16T08:37:01.780Z,63520.00
2019-04-16T08:38:01.762Z,63616.00
2019-04-16T08:39:05.883Z,63936.00
2019-04-16T08:40:02.745Z,63776.00
2019-04-16T08:41:01.734Z,63808.00
2019-04-16T08:42:01.901Z,64160.00
2019-04-16T08:43:01.725Z,64224.00
2019-04-16T08:44:03.538Z,65568.00
2019-04-16T08:45:01.759Z,67552.00
2019-04-16T08:46:01.679Z,69664.00
2019-04-16T08:47:01.689Z,69408.00
2019-04-16T08:48:01.661Z,67328.00
2019-04-16T08:49:01.661Z,66400.00
2019-04-16T08:50:01.672Z,66240.00
2019-04-16T08:51:04.298Z,66784.00
2019-04-16T08:52:01.647Z,68384.00
2019-04-16T08:53:01.748Z,68544.00
2019-04-16T08:54:01.605Z,68096.00
2019-04-16T08:55:01.965Z,67072.00
2019-04-16T08:56:01.583Z,66464.00
2019-04-16T08:57:01.625Z,69696.00
2019-04-16T08:58:06.050Z,69120.00
2019-04-16T08:59:02.534Z,68704.00
2019-04-16T09:00:06.919Z,68608.00
2019-04-16T09:01:01.544Z,69824.00
2019-04-16T09:02:01.517Z,72960.00
2019-04-16T09:03:01.497Z,73344.00
2019-04-16T09:04:02.956Z,72128.00
2019-04-16T09:05:05.902Z,73824.00
2019-04-16T09:06:04.334Z,74144.00
2019-04-16T09:07:11.570Z,72544.00
2019-04-16T09:08:12.258Z,73472.00
2019-04-16T09:09:12.448Z,76512.00
2019-04-16T09:10:16.551Z,76896.00
2019-04-16T09:11:03.408Z,77792.00
2019-04-16T09:12:01.418Z,77024.00
2019-04-16T09:13:04.054Z,75456.00
2019-04-16T09:14:01.388Z,75488.00
2019-04-16T09:15:01.387Z,73888.00
2019-04-16T09:16:01.401Z,76288.00
2019-04-16T09:17:01.411Z,79264.00
2019-04-16T09:18:01.372Z,78272.00
2019-04-16T09:19:01.323Z,79776.00
2019-04-16T09:20:04.847Z,80480.00
2019-04-16T09:21:01.485Z,77792.00
2019-04-16T09:22:01.319Z,79072.00
2019-04-16T09:23:01.296Z,78080.00
2019-04-16T09:24:06.931Z,79776.00
2019-04-16T09:25:01.270Z,77984.00
2019-04-16T09:26:13.540Z,79552.00
2019-04-16T09:27:02.321Z,81984.00
2019-04-16T09:28:01.887Z,81856.00
2019-04-16T09:29:08.426Z,81600.00
2019-04-16T09:30:02.232Z,79968.00
2019-04-16T09:31:01.232Z,78688.00
2019-04-16T09:32:01.188Z,79584.00
2019-04-16T09:33:02.338Z,78944.00
2019-04-16T09:34:05.561Z,80704.00
2019-04-16T09:35:10.287Z,79904.00
2019-04-16T09:36:02.454Z,80736.00
2019-04-16T09:37:01.137Z,82784.00
2019-04-16T09:38:01.122Z,78592.00
2019-04-16T09:39:01.134Z,80896.00
2019-04-16T09:40:01.146Z,83040.00
2019-04-16T09:41:01.085Z,79776.00
2019-04-16T09:42:01.418Z,80768.00
2019-04-16T09:43:01.219Z,81376.00
2019-04-16T09:44:01.089Z,82848.00
2019-04-16T09:45:01.912Z,84640.00
2019-04-16T09:46:10.273Z,84608.00
2019-04-16T09:47:05.033Z,84672.00
2019-04-16T09:48:02.425Z,83776.00
2019-04-16T09:49:04.898Z,85760.00
2019-04-16T09:50:01.066Z,85984.00
2019-04-16T09:51:00.981Z,85120.00
2019-04-16T09:52:03.809Z,87968.00
2019-04-16T09:53:02.003Z,87040.00
2019-04-16T09:54:01.010Z,84000.00
2019-04-16T09:55:00.947Z,86656.00
2019-04-16T09:56:00.940Z,86528.00
2019-04-16T09:57:01.170Z,83904.00
2019-04-16T09:58:05.976Z,86496.00
2019-04-16T09:59:02.002Z,87264.00
2019-04-16T10:00:00.897Z,86560.00
2019-04-16T10:01:00.949Z,84608.00
2019-04-16T10:02:00.937Z,78112.00
2019-04-16T10:03:00.858Z,81888.00
2019-04-16T10:04:00.868Z,87936.00
2019-04-16T10:05:00.830Z,88800.00
2019-04-16T10:06:00.862Z,84160.00
2019-04-16T10:07:00.977Z,83648.00
2019-04-16T10:08:00.839Z,84064.00
2019-04-16T10:09:00.843Z,88640.00
2019-04-16T10:10:00.810Z,91744.00
2019-04-16T10:11:04.110Z,83808.00
2019-04-16T10:12:04.929Z,85280.00
2019-04-16T10:13:00.769Z,87328.00
2019-04-16T10:14:00.814Z,83968.00
2019-04-16T10:15:00.730Z,90656.00
2019-04-16T10:16:00.778Z,87456.00
2019-04-16T10:17:00.943Z,86976.00
2019-04-16T10:18:01.499Z,88512.00
2019-04-16T10:19:00.683Z,87104.00
2019-04-16T10:20:00.706Z,88032.00
2019-04-16T10:21:00.673Z,91360.00
2019-04-16T10:22:01.255Z,92032.00
2019-04-16T10:23:00.688Z,85984.00
2019-04-16T10:24:00.650Z,87872.00
2019-04-16T10:25:00.634Z,94048.00
2019-04-16T10:26:00.720Z,89248.00
2019-04-16T10:27:01.031Z,84352.00
2019-04-16T10:28:01.891Z,87488.00
2019-04-16T10:29:00.585Z,93472.00
2019-04-16T10:30:00.577Z,96384.00
2019-04-16T10:31:00.613Z,94272.00
2019-04-16T10:32:00.641Z,90400.00
2019-04-16T10:33:00.949Z,88032.00
2019-04-16T10:34:00.593Z,91840.00
2019-04-16T10:35:00.549Z,98432.00
2019-04-16T10:36:01.109Z,96832.00
2019-04-16T10:37:00.539Z,90240.00
2019-04-16T10:38:00.539Z,96544.00
2019-04-16T10:39:00.502Z,109728.00
2019-04-16T10:40:00.494Z,107456.00
2019-04-16T10:41:00.462Z,93152.00
2019-04-16T10:42:00.454Z,82176.00
2019-04-16T10:43:00.690Z,90848.00
2019-04-16T10:44:01.254Z,97888.00
2019-04-16T10:45:00.411Z,95648.00
2019-04-16T10:46:00.402Z,93088.00
2019-04-16T10:47:00.397Z,85216.00
2019-04-16T10:48:00.408Z,92416.00
2019-04-16T10:49:00.409Z,98176.00
2019-04-16T10:50:00.375Z,90688.00
2019-04-16T10:51:00.351Z,89312.00
2019-04-16T10:52:00.364Z,97984.00
2019-04-16T10:53:00.325Z,97760.00
2019-04-16T10:54:00.345Z,92256.00
2019-04-16T10:55:00.339Z,95840.00
2019-04-16T10:56:00.379Z,97728.00
2019-04-16T10:57:00.321Z,93568.00
2019-04-16T10:58:00.276Z,92960.00
2019-04-16T10:59:00.313Z,98816.00
2019-04-16T11:00:00.264Z,93440.00
2019-04-16T11:01:00.260Z,93216.00
2019-04-16T11:02:00.293Z,97792.00
2019-04-16T11:03:00.252Z,93504.00
2019-04-16T11:04:00.243Z,92160.00
2019-04-16T11:05:02.179Z,93248.00
2019-04-16T11:06:00.220Z,92736.00
2019-04-16T11:07:00.195Z,92480.00
2019-04-16T11:08:00.337Z,91712.00
2019-04-16T11:09:00.162Z,93088.00
2019-04-16T11:10:00.187Z,94976.00
2019-04-16T11:11:00.153Z,97664.00
2019-04-16T11:12:04.785Z,96896.00
2019-04-16T11:13:01.137Z,93216.00
2019-04-16T11:14:00.703Z,94208.00
2019-04-16T11:15:00.123Z,92256.00
2019-04-16T11:16:00.136Z,96064.00
2019-04-16T11:17:00.092Z,95264.00
2019-04-16T11:18:00.079Z,91040.00
2019-04-16T11:19:00.086Z,93568.00
2019-04-16T11:20:00.381Z,100544.00
2019-04-16T11:21:00.397Z,100032.00
2019-04-16T11:22:04.033Z,96224.00
2019-04-16T11:23:01.060Z,95552.00
2019-04-16T11:24:00.087Z,92128.00
2019-04-16T11:25:00.161Z,89856.00
2019-04-16T11:25:59.993Z,90368.00
2019-04-16T11:27:00.135Z,92064.00
2019-04-16T11:28:00.116Z,92800.00
2019-04-16T11:28:59.954Z,94048.00
2019-04-16T11:30:00.031Z,92800.00
2019-04-16T11:30:59.939Z,94528.00
2019-04-16T11:31:59.918Z,93536.00
2019-04-16T11:32:59.950Z,92992.00
2019-04-16T11:33:59.945Z,94208.00
2019-04-16T11:34:59.900Z,88704.00
2019-04-16T11:35:59.944Z,88352.00
2019-04-16T11:36:59.886Z,94624.00
2019-04-16T11:37:59.852Z,90464.00
2019-04-16T11:38:59.852Z,89696.00
2019-04-16T11:39:59.835Z,94688.00
2019-04-16T11:41:00.023Z,95264.00
2019-04-16T11:41:59.835Z,89760.00
2019-04-16T11:42:59.867Z,92864.00
2019-04-16T11:44:14.138Z,98304.00
2019-04-16T11:45:00.885Z,96448.00
2019-04-16T11:45:59.886Z,95584.00
2019-04-16T11:46:59.803Z,93600.00
2019-04-16T11:47:59.808Z,92864.00
2019-04-16T11:48:59.761Z,97120.00
2019-04-16T11:49:59.739Z,97952.00
2019-04-16T11:50:59.755Z,96160.00
2019-04-16T11:51:59.778Z,96512.00
2019-04-16T11:52:59.741Z,99616.00
2019-04-16T11:53:59.707Z,103104.00
2019-04-16T11:55:00.870Z,102048.00
2019-04-16T11:55:59.814Z,101120.00
2019-04-16T11:57:00.240Z,101696.00
2019-04-16T11:57:59.689Z,98848.00
2019-04-16T11:58:59.683Z,98976.00
2019-04-16T12:00:07.468Z,99136.00
2019-04-16T12:01:00.665Z,94336.00
2019-04-16T12:01:59.679Z,96480.00
2019-04-16T12:02:59.596Z,100960.00
2019-04-16T12:03:59.615Z,103904.00
2019-04-16T12:04:59.643Z,94560.00
2019-04-16T12:05:59.585Z,92256.00
2019-04-16T12:06:59.613Z,99008.00
2019-04-16T12:07:59.583Z,98528.00
2019-04-16T12:08:59.539Z,95552.00
2019-04-16T12:09:59.585Z,94976.00
2019-04-16T12:10:59.556Z,92032.00
2019-04-16T12:11:59.565Z,95648.00
2019-04-16T12:13:03.265Z,99008.00
2019-04-16T12:13:59.533Z,94944.00
2019-04-16T12:14:59.532Z,96256.00
2019-04-16T12:15:59.475Z,95808.00
2019-04-16T12:16:59.566Z,98080.00
2019-04-16T12:17:59.445Z,105568.00
2019-04-16T12:18:59.942Z,98720.00
2019-04-16T12:19:59.425Z,92416.00